Time;durP1;ratioP1;P1;durP2;ratioP2;P2;SDS_P1;SDS_P2;PMS_P1;PMS_P2;Temp;Humidity;BMP_temperature;BMP_pressure;BME280_temperature;BME280_humidity;BME280_pressure;Samples;Min_cycle;Max_cycle;Signal;HPM_P1;HPM_P2
2022/01/07 04:48:22;;;;;;;8.05;4.03;;;;;;;-4.16;75.75;100299.16;6252200;22;20095;-85
2022/01/07 08:40:57;;;;;;;9.07;3.80;;;;;;;-0.41;69.19;100229.06;6289808;22;20031;-88
2022/01/07 08:47:14;;;;;;;8.85;3.20;;;;;;;0.09;69.14;100266.72;6259443;22;20122;-89
2022/01/07 08:49:49;;;;;;;7.97;3.20;;;;;;;-0.02;68.70;100246.09;6278983;22;20019;-91
2022/01/07 08:52:24;;;;;;;5.55;3.00;;;;;;;0.46;68.56;100302.00;6252884;22;20022;-91
2022/01/07 08:55:04;;;;;;;6.90;3.20;;;;;;;-0.16;67.73;100224.50;6252793;22;20016;-92
2022/01/07 08:57:48;;;;;;;9.40;3.28;;;;;;;0.39;67.94;100320.06;6252060;22;20091;-91
2022/01/07 09:00:25;;;;;;;6.53;3.15;;;;;;;0.17;67.57;100264.59;6279035;22;20019;-91
2022/01/07 09:02:58;;;;;;;7.65;2.55;;;;;;;0.56;68.03;100304.19;6277665;22;20098;-91
2022/01/07 09:05:33;;;;;;;7.40;2.97;;;;;;;0.86;68.05;100310.69;6254367;22;20020;-88
2022/01/07 09:08:12;;;;;;;6.95;3.10;;;;;;;0.23;67.29;100222.22;6278719;22;20016;-91
2022/01/07 09:10:50;;;;;;;9.85;4.15;;;;;;;0.72;67.00;100306.63;6154952;22;20074;-93
2022/01/07 09:13:36;;;;;;;10.48;3.42;;;;;;;0.82;67.27;100307.94;6279399;22;20015;-91
2022/01/07 09:16:10;;;;;;;7.00;3.33;;;;;;;0.53;66.75;100208.59;6252544;22;20071;-93
2022/01/07 09:18:41;;;;;;;8.70;3.53;;;;;;;0.99;66.05;100267.75;6251842;22;20020;-91
2022/01/07 09:21:15;;;;;;;6.40;3.33;;;;;;;0.19;65.47;100175.19;6278756;22;20016;-92
2022/01/07 09:23:48;;;;;;;10.55;2.78;;;;;;;0.61;65.64;100242.50;6251706;22;20351;-92
2022/01/07 09:26:23;;;;;;;9.55;3.20;;;;;;;1.34;66.18;100292.84;6200794;22;20092;-92
2022/01/07 09:29:02;;;;;;;6.63;3.30;;;;;;;0.83;65.16;100189.97;6251984;22;20020;-92
2022/01/07 09:31:35;;;;;;;8.68;3.00;;;;;;;0.84;65.13;100196.69;6276947;22;20066;-92
2022/01/07 09:34:11;;;;;;;7.43;3.47;;;;;;;1.03;65.00;100234.41;6251417;22;20062;-92
2022/01/07 09:37:13;;;;;;;9.70;3.60;;;;;;;1.06;64.39;100238.72;6226444;22;20521;-92
2022/01/07 09:39:43;;;;;;;7.90;3.40;;;;;;;1.44;64.64;100283.22;6250743;22;20103;-92
2022/01/07 09:42:13;;;;;;;10.25;4.15;;;;;;;1.49;64.81;100276.75;6277332;22;20089;-92
2022/01/07 09:44:50;;;;;;;6.82;3.30;;;;;;;1.72;64.39;100273.56;6278210;22;20022;-93
2022/01/07 09:47:28;;;;;;;10.15;4.05;;;;;;;0.88;64.53;100122.34;6278535;22;20019;-92
2022/01/07 09:50:02;;;;;;;6.63;4.03;;;;;;;1.47;63.91;100233.03;6278127;22;20094;-92
2022/01/07 09:52:33;;;;;;;8.63;3.92;;;;;;;1.12;64.12;100169.53;6276873;22;20015;-93
2022/01/07 09:55:09;;;;;;;8.52;3.38;;;;;;;1.55;64.21;100216.66;6251346;22;20016;-92
2022/01/07 09:57:46;;;;;;;6.97;3.40;;;;;;;1.68;63.01;100259.16;6251006;22;20015;-93
2022/01/07 10:00:22;;;;;;;8.50;3.08;;;;;;;1.48;62.93;100243.19;6251806;22;20019;-92
2022/01/07 10:03:03;;;;;;;10.35;3.72;;;;;;;0.92;62.41;100190.38;6277769;22;20128;-91
2022/01/07 10:05:45;;;;;;;10.07;4.03;;;;;;;1.52;62.84;100241.66;6251386;22;20020;-91
2022/01/07 10:08:27;;;;;;;10.07;4.05;;;;;;;1.32;63.08;100249.16;6251214;22;20015;-90
2022/01/07 10:11:18;;;;;;;10.70;4.28;;;;;;;1.59;63.25;100249.53;6225543;22;20332;-92
2022/01/07 10:13:51;;;;;;;11.23;4.15;;;;;;;1.62;63.03;100249.69;6252211;22;20435;-92
2022/01/07 10:16:28;;;;;;;8.65;4.05;;;;;;;0.11;62.76;99970.72;6226871;22;20016;-91
2022/01/07 10:19:01;;;;;;;8.20;4.55;;;;;;;1.57;63.30;100194.94;6202611;22;20016;-92
2022/01/07 10:21:38;;;;;;;12.40;4.68;;;;;;;1.55;63.18;100192.38;6226397;22;20336;-91
2022/01/07 10:24:14;;;;;;;9.77;4.03;;;;;;;1.89;63.63;100225.72;6227706;22;20020;-91
2022/01/07 10:26:45;;;;;;;8.63;4.40;;;;;;;1.59;62.59;100178.25;6251764;22;20016;-90
2022/01/07 10:29:28;;;;;;;;;;;;;;;2.03;62.42;100232.19;6252946;22;20015;-89
2022/01/07 10:32:21;;;;;;;8.18;4.00;;;;;;;2.27;62.35;100227.28;6251739;22;19915;-91
2022/01/07 10:35:23;;;;;;;10.18;4.07;;;;;;;2.42;61.01;100219.50;6278646;22;20019;-91
2022/01/07 10:37:59;;;;;;;8.95;4.50;;;;;;;1.84;60.56;100133.19;6188497;23;20016;-90
2022/01/07 10:40:34;;;;;;;11.32;4.28;;;;;;;2.02;60.98;100169.16;6216032;22;20028;-91
2022/01/07 10:43:11;;;;;;;9.02;4.35;;;;;;;2.18;61.35;100171.53;6226810;22;20090;-91
2022/01/07 10:45:47;;;;;;;8.30;3.92;;;;;;;3.09;60.32;100207.84;6250878;22;20028;-91
2022/01/07 10:48:46;;;;;;;11.57;3.72;;;;;;;3.19;59.67;100202.34;6251145;22;20024;-90
2022/01/07 10:51:22;;;;;;;9.43;3.60;;;;;;;2.69;59.12;100155.06;6189590;23;20020;-91
2022/01/07 10:53:57;;;;;;;9.15;3.85;;;;;;;3.41;59.14;100201.44;6214750;23;20095;-91
2022/01/07 10:56:37;;;;;;;6.57;3.65;;;;;;;3.34;58.31;100187.75;6214672;23;20017;-91
2022/01/07 10:59:11;;;;;;;9.20;3.50;;;;;;;3.81;58.41;100175.13;6140677;23;20565;-91
2022/01/07 11:01:46;;;;;;;9.38;4.30;;;;;;;4.41;57.76;100198.16;6214104;23;20020;-91
2022/01/07 11:04:25;;;;;;;8.40;4.50;;;;;;;4.58;57.25;100194.50;6190077;23;20028;-90
2022/01/07 11:06:59;;;;;;;8.40;3.88;;;;;;;4.17;55.76;100159.47;6189720;23;20025;-92
2022/01/07 11:09:34;;;;;;;8.35;3.42;;;;;;;4.21;55.17;100186.53;6189505;23;20043;-93
2022/01/07 11:12:10;;;;;;;8.73;3.95;;;;;;;3.80;54.16;100127.97;6214855;23;20013;-92
2022/01/07 11:14:42;;;;;;;9.70;3.75;;;;;;;4.21;54.79;100177.31;6214528;23;20016;-91
2022/01/07 11:17:23;;;;;;;7.32;3.22;;;;;;;3.96;54.13;100140.28;6248456;22;20020;-92
2022/01/07 11:19:57;;;;;;;8.57;3.78;;;;;;;4.53;54.32;100183.38;6100880;23;20153;-92
2022/01/07 11:22:32;;;;;;;9.70;3.42;;;;;;;4.34;53.41;100135.63;6125130;23;20478;-90
2022/01/07 11:25:13;;;;;;;8.10;3.63;;;;;;;4.49;52.58;100159.66;6100834;23;20020;-92
2022/01/07 11:27:51;;;;;;;10.45;4.68;;;;;;;4.43;52.83;100111.47;6100534;23;20018;-92
2022/01/07 11:30:26;;;;;;;8.55;3.33;;;;;;;4.43;51.30;100153.56;6125378;23;20048;-92
2022/01/07 11:33:03;;;;;;;7.60;2.67;;;;;;;4.17;50.57;100119.06;6077953;23;20347;-93
2022/01/07 11:35:50;;;;;;;6.10;2.90;;;;;;;3.71;49.71;100041.84;6127112;23;20026;-92
2022/01/07 11:38:41;;;;;;;6.25;2.45;;;;;;;4.60;49.46;100139.78;6062889;23;20041;-91
2022/01/07 11:41:40;;;;;;;7.15;2.83;;;;;;;4.56;49.24;100160.72;6156263;23;20037;-91
2022/01/07 11:44:14;;;;;;;7.03;3.10;;;;;;;4.66;49.09;100137.44;6156653;23;20453;-91
2022/01/07 11:46:44;;;;;;;8.20;2.83;;;;;;;4.83;49.47;100146.38;6132443;23;20104;-91
2022/01/07 11:49:31;;;;;;;;;;;;;;;4.80;48.72;100136.16;6132366;23;20101;-91
2022/01/07 11:52:36;;;;;;;5.45;2.42;;;;;;;4.64;48.48;100149.16;6112036;23;19923;-91
2022/01/07 11:55:30;;;;;;;6.95;2.83;;;;;;;4.58;48.67;100076.53;6156353;23;20022;-90
2022/01/07 11:58:06;;;;;;;8.95;2.58;;;;;;;5.03;48.02;100130.13;6144040;23;20124;-90
2022/01/07 12:00:56;;;;;;;8.00;3.15;;;;;;;5.17;48.08;100133.91;6131774;23;20022;-89
2022/01/07 12:03:40;;;;;;;5.53;2.30;;;;;;;5.18;47.44;100120.41;6131830;23;20017;-90
2022/01/07 12:06:44;;;;;;;4.07;1.80;;;;;;;5.08;47.86;100128.59;6156411;23;20056;-91
2022/01/07 12:09:28;;;;;;;3.20;1.30;;;;;;;4.97;46.59;100109.69;6107493;23;20021;-90
2022/01/07 12:12:05;;;;;;;4.90;2.08;;;;;;;4.63;45.07;100091.88;6163639;23;20068;-89
2022/01/07 12:14:38;;;;;;;3.88;1.70;;;;;;;4.89;45.09;100115.38;6138414;22;20149;-91
2022/01/07 12:17:13;;;;;;;2.80;1.30;;;;;;;5.09;44.58;100106.66;6279191;22;20026;-90
2022/01/07 12:20:22;;;;;;;3.90;1.73;;;;;;;5.46;45.32;100100.91;6253258;22;20103;-91
2022/01/07 12:22:55;;;;;;;2.60;1.17;;;;;;;5.73;43.12;100096.56;6278781;22;20026;-90
2022/01/07 12:25:28;;;;;;;2.75;1.38;;;;;;;4.61;41.46;99906.44;6252457;22;20111;-90
2022/01/07 12:28:08;;;;;;;3.30;1.30;;;;;;;6.42;42.51;100072.06;6201721;22;20023;-90
2022/01/07 12:30:41;;;;;;;3.13;1.38;;;;;;;7.58;40.76;100074.41;6252050;22;20020;-89
2022/01/07 12:33:12;;;;;;;4.50;1.45;;;;;;;7.26;39.25;100017.09;6278811;22;20099;-90
2022/01/07 12:35:43;;;;;;;4.57;1.30;;;;;;;7.46;39.05;99975.16;6278756;22;20082;-90
2022/01/07 12:38:21;;;;;;;3.08;1.60;;;;;;;7.96;38.18;100080.97;6252054;22;20011;-90
2022/01/07 12:41:01;;;;;;;3.42;1.38;;;;;;;8.47;37.85;100080.09;6251677;22;20034;-89
2022/01/07 12:43:36;;;;;;;5.15;1.80;;;;;;;8.84;37.84;100067.00;6278909;22;20058;-88
2022/01/07 12:46:10;;;;;;;4.03;1.65;;;;;;;8.39;36.81;100079.09;6278929;22;20023;-90
2022/01/07 12:48:48;;;;;;;3.15;1.40;;;;;;;7.67;38.66;100051.69;6228348;22;20024;-89
2022/01/07 12:51:22;;;;;;;3.63;1.40;;;;;;;7.37;38.83;100063.84;6279089;22;20056;-89
2022/01/07 12:53:57;;;;;;;2.45;1.02;;;;;;;6.29;38.49;100017.69;6227365;22;20065;-91
2022/01/07 12:56:36;;;;;;;2.42;1.25;;;;;;;6.11;39.25;100067.13;6227154;22;20447;-91
2022/01/07 12:59:13;;;;;;;3.42;1.38;;;;;;;5.68;40.24;100067.75;6252859;22;20012;-90
2022/01/07 13:01:48;;;;;;;3.33;1.27;;;;;;;5.05;41.01;100057.66;6252233;22;20522;-91
2022/01/07 13:04:22;;;;;;;6.50;1.85;;;;;;;4.25;41.95;100006.50;6279028;22;20019;-89
2022/01/07 13:06:56;;;;;;;2.67;1.13;;;;;;;4.29;42.88;100063.88;6227116;22;20046;-91
2022/01/07 13:09:30;;;;;;;4.20;1.70;;;;;;;3.96;43.17;100063.66;6251557;22;20099;-91
2022/01/07 13:12:06;;;;;;;3.22;1.35;;;;;;;3.37;43.31;100003.72;6226888;22;20046;-90
2022/01/07 13:14:48;;;;;;;3.30;1.45;;;;;;;3.26;44.23;99974.78;6278810;22;20451;-90
2022/01/07 13:20:50;;;;;;;3.13;1.42;;;;;;;3.16;45.22;100050.91;6289930;22;20043;-87
2022/01/07 13:30:00;;;;;;;3.97;1.50;;;;;;;2.37;47.54;100010.28;6251374;22;20010;-86
2022/01/07 13:32:45;;;;;;;4.88;2.05;;;;;;;2.37;48.02;100005.25;6097305;23;20018;-89
2022/01/07 13:35:30;;;;;;;3.92;1.50;;;;;;;2.22;47.77;99998.78;6072982;23;20072;-89
2022/01/07 13:38:18;;;;;;;6.63;1.88;;;;;;;2.49;48.67;100051.03;6027136;23;20030;-89
2022/01/07 13:41:10;;;;;;;2.60;1.50;;;;;;;2.43;49.22;100030.66;6072356;23;20081;-89
2022/01/07 13:44:04;;;;;;;3.60;1.90;;;;;;;2.42;49.62;100028.94;6052363;22;20026;31
2022/01/07 13:46:37;;;;;;;5.60;1.90;;;;;;;2.45;50.83;100041.63;6156483;23;20021;-90
2022/01/07 13:49:09;;;;;;;4.13;1.63;;;;;;;2.39;50.58;100036.38;6156760;23;20033;-90
2022/01/07 13:51:41;;;;;;;2.75;1.38;;;;;;;2.35;51.63;100037.06;6131421;23;20104;-90
2022/01/07 13:54:16;;;;;;;5.65;2.17;;;;;;;2.02;52.18;99975.38;6155870;23;20044;-89
2022/01/07 13:56:48;;;;;;;6.60;2.10;;;;;;;2.32;52.10;100031.06;6157350;23;20022;-90
2022/01/07 13:59:18;;;;;;;4.72;2.10;;;;;;;1.95;51.78;99988.53;6156419;23;20078;-89
2022/01/07 15:47:16;;;;;;;8.02;3.50;;;;;;;-0.93;64.87;99939.06;6300159;22;20111;-86
2022/01/07 15:54:38;;;;;;;5.75;2.17;;;;;;;-1.60;64.78;99835.66;6298376;22;20049;-87
2022/01/07 16:04:04;;;;;;;5.55;2.53;;;;;;;-1.10;65.66;99952.41;6292604;22;20084;-89
2022/01/07 23:21:27;;;;;;;24.38;10.10;;;;;;;-4.33;74.19;99903.63;6278961;22;20031;-85
